sensor_id;sensor_type;location;lat;lon;timestamp;P1;durP1;ratioP1;P2;durP2;ratioP2
40781;SDS011;26493;51.938;7.626;2024-01-15T00:01:20;21.23;;;18.85;;
40781;SDS011;26493;51.938;7.626;2024-01-15T00:03:46;17.92;;;16.13;;
40781;SDS011;26493;51.938;7.626;2024-01-15T00:06:12;17.55;;;15.68;;
40781;SDS011;26493;51.938;7.626;2024-01-15T00:08:38;20.08;;;16.05;;
40781;SDS011;26493;51.938;7.626;2024-01-15T00:11:04;19.58;;;17.08;;
40781;SDS011;26493;51.938;7.626;2024-01-15T00:13:30;17.05;;;15.13;;
40781;SDS011;26493;51.938;7.626;2024-01-15T00:15:56;16.65;;;14.95;;
40781;SDS011;26493;51.938;7.626;2024-01-15T00:18:22;17.05;;;15.25;;
40781;SDS011;26493;51.938;7.626;2024-01-15T00:20:48;19.35;;;17.35;;
40781;SDS011;26493;51.938;7.626;2024-01-15T00:23:14;18.88;;;15.10;;
40781;SDS011;26493;51.938;7.626;2024-01-15T00:25:40;19.25;;;17.20;;
40781;SDS011;26493;51.938;7.626;2024-01-15T00:28:06;30.85;;;16.15;;
40781;SDS011;26493;51.938;7.626;2024-01-15T00:30:32;18.02;;;16.13;;
40781;SDS011;26493;51.938;7.626;2024-01-15T00:32:58;20.17;;;14.70;;
40781;SDS011;26493;51.938;7.626;2024-01-15T00:35:24;17.27;;;15.48;;
40781;SDS011;26493;51.938;7.626;2024-01-15T00:37:50;16.38;;;14.68;;
40781;SDS011;26493;51.938;7.626;2024-01-15T00:40:16;16.67;;;14.88;;
40781;SDS011;26493;51.938;7.626;2024-01-15T00:42:42;16.83;;;15.10;;
40781;SDS011;26493;51.938;7.626;2024-01-15T00:45:09;16.55;;;14.85;;
40781;SDS011;26493;51.938;7.626;2024-01-15T00:47:35;15.60;;;14.00;;
40781;SDS011;26493;51.938;7.626;2024-01-15T00:50:01;19.58;;;17.58;;
40781;SDS011;26493;51.938;7.626;2024-01-15T00:52:27;23.52;;;16.05;;
40781;SDS011;26493;51.938;7.626;2024-01-15T00:54:53;17.27;;;15.48;;
40781;SDS011;26493;51.938;7.626;2024-01-15T00:57:19;16.58;;;14.88;;
40781;SDS011;26493;51.938;7.626;2024-01-15T00:59:45;16.27;;;14.57;;
40781;SDS011;26493;51.938;7.626;2024-01-15T01:02:11;23.02;;;20.08;;
40781;SDS011;26493;51.938;7.626;2024-01-15T01:04:37;17.20;;;15.13;;
40781;SDS011;26493;51.938;7.626;2024-01-15T01:07:03;15.98;;;14.25;;
40781;SDS011;26493;51.938;7.626;2024-01-15T01:09:29;16.33;;;13.45;;
40781;SDS011;26493;51.938;7.626;2024-01-15T01:11:55;21.10;;;16.23;;
40781;SDS011;26493;51.938;7.626;2024-01-15T01:14:22;27.08;;;14.90;;
40781;SDS011;26493;51.938;7.626;2024-01-15T01:16:48;19.88;;;15.20;;
40781;SDS011;26493;51.938;7.626;2024-01-15T01:19:14;16.95;;;14.80;;
40781;SDS011;26493;51.938;7.626;2024-01-15T01:21:40;18.42;;;16.58;;
40781;SDS011;26493;51.938;7.626;2024-01-15T01:24:06;19.33;;;16.73;;
40781;SDS011;26493;51.938;7.626;2024-01-15T01:26:32;20.33;;;16.10;;
40781;SDS011;26493;51.938;7.626;2024-01-15T01:28:58;14.90;;;12.13;;
40781;SDS011;26493;51.938;7.626;2024-01-15T01:31:24;15.73;;;13.02;;
40781;SDS011;26493;51.938;7.626;2024-01-15T01:33:50;15.45;;;13.10;;
40781;SDS011;26493;51.938;7.626;2024-01-15T01:36:16;14.68;;;11.95;;
40781;SDS011;26493;51.938;7.626;2024-01-15T01:38:42;17.20;;;13.10;;
40781;SDS011;26493;51.938;7.626;2024-01-15T01:41:08;14.40;;;11.10;;
40781;SDS011;26493;51.938;7.626;2024-01-15T01:43:35;19.15;;;13.85;;
40781;SDS011;26493;51.938;7.626;2024-01-15T01:46:01;16.67;;;11.90;;
40781;SDS011;26493;51.938;7.626;2024-01-15T01:48:28;17.80;;;12.20;;
40781;SDS011;26493;51.938;7.626;2024-01-15T01:50:55;14.40;;;11.05;;
40781;SDS011;26493;51.938;7.626;2024-01-15T01:53:22;14.52;;;10.55;;
40781;SDS011;26493;51.938;7.626;2024-01-15T01:55:49;18.02;;;11.13;;
40781;SDS011;26493;51.938;7.626;2024-01-15T01:58:16;16.60;;;13.40;;
40781;SDS011;26493;51.938;7.626;2024-01-15T02:00:42;27.67;;;15.40;;
40781;SDS011;26493;51.938;7.626;2024-01-15T02:03:08;15.70;;;11.20;;
40781;SDS011;26493;51.938;7.626;2024-01-15T02:05:35;16.98;;;13.05;;
40781;SDS011;26493;51.938;7.626;2024-01-15T02:08:02;15.90;;;10.98;;
40781;SDS011;26493;51.938;7.626;2024-01-15T02:10:28;23.88;;;10.38;;
40781;SDS011;26493;51.938;7.626;2024-01-15T02:12:53;12.88;;;7.60;;
40781;SDS011;26493;51.938;7.626;2024-01-15T02:15:20;12.55;;;7.70;;
40781;SDS011;26493;51.938;7.626;2024-01-15T02:18:07;14.68;;;8.25;;
40781;SDS011;26493;51.938;7.626;2024-01-15T02:20:34;12.60;;;7.95;;
40781;SDS011;26493;51.938;7.626;2024-01-15T02:23:06;15.43;;;8.95;;
40781;SDS011;26493;51.938;7.626;2024-01-15T02:25:33;15.27;;;9.45;;
40781;SDS011;26493;51.938;7.626;2024-01-15T02:28:00;14.20;;;7.55;;
40781;SDS011;26493;51.938;7.626;2024-01-15T02:30:26;14.00;;;9.88;;
40781;SDS011;26493;51.938;7.626;2024-01-15T02:32:53;15.02;;;10.02;;
40781;SDS011;26493;51.938;7.626;2024-01-15T02:35:19;10.93;;;6.55;;
40781;SDS011;26493;51.938;7.626;2024-01-15T02:37:45;16.77;;;8.98;;
40781;SDS011;26493;51.938;7.626;2024-01-15T02:40:11;15.27;;;9.15;;
40781;SDS011;26493;51.938;7.626;2024-01-15T02:42:37;15.18;;;8.43;;
40781;SDS011;26493;51.938;7.626;2024-01-15T02:45:03;15.55;;;7.65;;
40781;SDS011;26493;51.938;7.626;2024-01-15T02:47:30;14.48;;;8.85;;
40781;SDS011;26493;51.938;7.626;2024-01-15T02:49:55;15.45;;;8.95;;
40781;SDS011;26493;51.938;7.626;2024-01-15T02:52:21;13.80;;;9.30;;
40781;SDS011;26493;51.938;7.626;2024-01-15T02:54:47;22.73;;;10.30;;
40781;SDS011;26493;51.938;7.626;2024-01-15T02:57:13;17.58;;;10.65;;
40781;SDS011;26493;51.938;7.626;2024-01-15T02:59:39;16.65;;;8.57;;
40781;SDS011;26493;51.938;7.626;2024-01-15T03:02:05;13.73;;;8.30;;
40781;SDS011;26493;51.938;7.626;2024-01-15T03:04:31;18.80;;;10.27;;
40781;SDS011;26493;51.938;7.626;2024-01-15T03:06:57;16.75;;;8.93;;
40781;SDS011;26493;51.938;7.626;2024-01-15T03:09:23;22.10;;;10.20;;
40781;SDS011;26493;51.938;7.626;2024-01-15T03:11:49;11.15;;;6.45;;
40781;SDS011;26493;51.938;7.626;2024-01-15T03:14:15;17.60;;;9.02;;
40781;SDS011;26493;51.938;7.626;2024-01-15T03:16:41;16.13;;;10.05;;
40781;SDS011;26493;51.938;7.626;2024-01-15T03:19:07;13.95;;;9.05;;
40781;SDS011;26493;51.938;7.626;2024-01-15T03:21:33;11.93;;;6.97;;
40781;SDS011;26493;51.938;7.626;2024-01-15T03:23:59;14.20;;;8.48;;
40781;SDS011;26493;51.938;7.626;2024-01-15T03:26:25;14.48;;;7.82;;
40781;SDS011;26493;51.938;7.626;2024-01-15T03:28:51;11.82;;;8.57;;
40781;SDS011;26493;51.938;7.626;2024-01-15T03:31:17;11.63;;;6.72;;
40781;SDS011;26493;51.938;7.626;2024-01-15T03:33:43;15.82;;;6.97;;
40781;SDS011;26493;51.938;7.626;2024-01-15T03:36:09;14.00;;;6.75;;
40781;SDS011;26493;51.938;7.626;2024-01-15T03:38:38;12.23;;;7.22;;
40781;SDS011;26493;51.938;7.626;2024-01-15T03:43:30;29.42;;;8.57;;
40781;SDS011;26493;51.938;7.626;2024-01-15T03:45:56;14.73;;;7.22;;
40781;SDS011;26493;51.938;7.626;2024-01-15T03:48:22;13.18;;;7.05;;
40781;SDS011;26493;51.938;7.626;2024-01-15T03:50:48;17.20;;;8.57;;
40781;SDS011;26493;51.938;7.626;2024-01-15T03:53:14;12.50;;;7.10;;
40781;SDS011;26493;51.938;7.626;2024-01-15T03:55:40;19.30;;;9.23;;
40781;SDS011;26493;51.938;7.626;2024-01-15T03:58:06;15.25;;;8.45;;
40781;SDS011;26493;51.938;7.626;2024-01-15T04:00:32;14.45;;;8.57;;
40781;SDS011;26493;51.938;7.626;2024-01-15T04:02:57;21.80;;;9.52;;
40781;SDS011;26493;51.938;7.626;2024-01-15T04:05:23;11.88;;;7.20;;
40781;SDS011;26493;51.938;7.626;2024-01-15T04:07:50;10.57;;;6.25;;
40781;SDS011;26493;51.938;7.626;2024-01-15T04:10:15;15.43;;;9.25;;
40781;SDS011;26493;51.938;7.626;2024-01-15T04:12:41;13.68;;;7.80;;
40781;SDS011;26493;51.938;7.626;2024-01-15T04:15:07;18.35;;;8.18;;
40781;SDS011;26493;51.938;7.626;2024-01-15T04:17:33;12.35;;;7.70;;
40781;SDS011;26493;51.938;7.626;2024-01-15T04:19:59;12.23;;;8.35;;
40781;SDS011;26493;51.938;7.626;2024-01-15T04:22:26;10.07;;;5.95;;
40781;SDS011;26493;51.938;7.626;2024-01-15T04:24:52;12.10;;;6.68;;
40781;SDS011;26493;51.938;7.626;2024-01-15T04:27:18;10.15;;;5.95;;
40781;SDS011;26493;51.938;7.626;2024-01-15T04:29:44;13.63;;;7.60;;
40781;SDS011;26493;51.938;7.626;2024-01-15T04:32:10;11.70;;;7.00;;
40781;SDS011;26493;51.938;7.626;2024-01-15T04:34:36;12.05;;;7.20;;
40781;SDS011;26493;51.938;7.626;2024-01-15T04:37:02;12.50;;;7.45;;
40781;SDS011;26493;51.938;7.626;2024-01-15T04:39:29;11.73;;;7.15;;
40781;SDS011;26493;51.938;7.626;2024-01-15T04:41:55;11.75;;;6.90;;
40781;SDS011;26493;51.938;7.626;2024-01-15T04:44:21;12.30;;;7.03;;
40781;SDS011;26493;51.938;7.626;2024-01-15T04:46:47;14.38;;;7.75;;
40781;SDS011;26493;51.938;7.626;2024-01-15T04:49:13;12.80;;;8.50;;
40781;SDS011;26493;51.938;7.626;2024-01-15T04:51:39;12.50;;;7.72;;
40781;SDS011;26493;51.938;7.626;2024-01-15T04:54:05;12.55;;;7.53;;
40781;SDS011;26493;51.938;7.626;2024-01-15T04:56:31;13.15;;;8.25;;
40781;SDS011;26493;51.938;7.626;2024-01-15T04:58:56;16.20;;;8.70;;
40781;SDS011;26493;51.938;7.626;2024-01-15T05:01:22;13.00;;;7.60;;
40781;SDS011;26493;51.938;7.626;2024-01-15T05:03:48;13.13;;;7.82;;
40781;SDS011;26493;51.938;7.626;2024-01-15T05:06:15;13.10;;;7.80;;
40781;SDS011;26493;51.938;7.626;2024-01-15T05:08:41;13.60;;;8.48;;
40781;SDS011;26493;51.938;7.626;2024-01-15T05:11:07;13.20;;;7.85;;
40781;SDS011;26493;51.938;7.626;2024-01-15T05:13:33;13.50;;;8.10;;
40781;SDS011;26493;51.938;7.626;2024-01-15T05:15:59;15.35;;;8.98;;
40781;SDS011;26493;51.938;7.626;2024-01-15T05:18:25;14.10;;;8.25;;
40781;SDS011;26493;51.938;7.626;2024-01-15T05:20:51;25.88;;;9.48;;
40781;SDS011;26493;51.938;7.626;2024-01-15T05:23:17;13.30;;;8.05;;
40781;SDS011;26493;51.938;7.626;2024-01-15T05:25:43;13.45;;;8.43;;
40781;SDS011;26493;51.938;7.626;2024-01-15T05:28:09;18.90;;;9.25;;
40781;SDS011;26493;51.938;7.626;2024-01-15T05:30:35;14.25;;;8.43;;
40781;SDS011;26493;51.938;7.626;2024-01-15T05:33:01;14.13;;;9.20;;
40781;SDS011;26493;51.938;7.626;2024-01-15T05:35:27;13.73;;;8.43;;
40781;SDS011;26493;51.938;7.626;2024-01-15T05:37:53;16.02;;;9.10;;
40781;SDS011;26493;51.938;7.626;2024-01-15T05:40:19;14.10;;;8.35;;
40781;SDS011;26493;51.938;7.626;2024-01-15T05:42:45;12.70;;;7.40;;
40781;SDS011;26493;51.938;7.626;2024-01-15T05:45:11;13.40;;;8.10;;
40781;SDS011;26493;51.938;7.626;2024-01-15T05:47:37;12.70;;;7.80;;
40781;SDS011;26493;51.938;7.626;2024-01-15T05:50:03;13.18;;;7.55;;
40781;SDS011;26493;51.938;7.626;2024-01-15T05:52:30;12.40;;;7.18;;
40781;SDS011;26493;51.938;7.626;2024-01-15T05:54:56;13.45;;;8.25;;
40781;SDS011;26493;51.938;7.626;2024-01-15T05:57:22;12.07;;;7.00;;
40781;SDS011;26493;51.938;7.626;2024-01-15T05:59:47;15.88;;;9.35;;
40781;SDS011;26493;51.938;7.626;2024-01-15T06:02:13;14.45;;;8.00;;
40781;SDS011;26493;51.938;7.626;2024-01-15T06:04:39;15.73;;;8.30;;
40781;SDS011;26493;51.938;7.626;2024-01-15T06:07:05;11.50;;;6.72;;
40781;SDS011;26493;51.938;7.626;2024-01-15T06:09:31;12.65;;;7.20;;
40781;SDS011;26493;51.938;7.626;2024-01-15T06:11:58;15.35;;;8.15;;
40781;SDS011;26493;51.938;7.626;2024-01-15T06:14:23;11.77;;;7.28;;
40781;SDS011;26493;51.938;7.626;2024-01-15T06:16:49;11.85;;;7.10;;
40781;SDS011;26493;51.938;7.626;2024-01-15T06:19:15;11.88;;;6.97;;
40781;SDS011;26493;51.938;7.626;2024-01-15T06:21:41;19.58;;;7.35;;
40781;SDS011;26493;51.938;7.626;2024-01-15T06:24:07;12.10;;;6.90;;
40781;SDS011;26493;51.938;7.626;2024-01-15T06:26:35;13.85;;;9.75;;
40781;SDS011;26493;51.938;7.626;2024-01-15T06:29:01;11.77;;;6.78;;
40781;SDS011;26493;51.938;7.626;2024-01-15T06:31:28;12.75;;;7.57;;
40781;SDS011;26493;51.938;7.626;2024-01-15T06:33:55;16.42;;;7.07;;
40781;SDS011;26493;51.938;7.626;2024-01-15T06:36:21;11.55;;;6.90;;
40781;SDS011;26493;51.938;7.626;2024-01-15T06:38:47;10.80;;;6.35;;
40781;SDS011;26493;51.938;7.626;2024-01-15T06:41:13;14.25;;;7.40;;
40781;SDS011;26493;51.938;7.626;2024-01-15T06:43:39;11.45;;;6.82;;
40781;SDS011;26493;51.938;7.626;2024-01-15T06:46:05;12.77;;;6.75;;
40781;SDS011;26493;51.938;7.626;2024-01-15T06:48:31;10.52;;;6.50;;
40781;SDS011;26493;51.938;7.626;2024-01-15T06:50:57;10.68;;;6.20;;
40781;SDS011;26493;51.938;7.626;2024-01-15T06:53:23;11.30;;;6.60;;
40781;SDS011;26493;51.938;7.626;2024-01-15T06:55:49;10.70;;;6.40;;
40781;SDS011;26493;51.938;7.626;2024-01-15T06:58:16;10.55;;;6.15;;
40781;SDS011;26493;51.938;7.626;2024-01-15T07:00:42;18.50;;;9.15;;
40781;SDS011;26493;51.938;7.626;2024-01-15T07:03:08;14.00;;;8.25;;
40781;SDS011;26493;51.938;7.626;2024-01-15T07:05:34;14.07;;;8.40;;
40781;SDS011;26493;51.938;7.626;2024-01-15T07:08:02;13.90;;;9.23;;
40781;SDS011;26493;51.938;7.626;2024-01-15T07:10:28;14.23;;;10.25;;
40781;SDS011;26493;51.938;7.626;2024-01-15T07:12:54;14.40;;;11.18;;
40781;SDS011;26493;51.938;7.626;2024-01-15T07:15:20;14.90;;;12.25;;
40781;SDS011;26493;51.938;7.626;2024-01-15T07:17:46;15.30;;;13.00;;
40781;SDS011;26493;51.938;7.626;2024-01-15T07:20:12;15.30;;;13.38;;
40781;SDS011;26493;51.938;7.626;2024-01-15T07:22:38;16.20;;;14.50;;
40781;SDS011;26493;51.938;7.626;2024-01-15T07:25:04;17.00;;;15.30;;
40781;SDS011;26493;51.938;7.626;2024-01-15T07:27:31;17.27;;;15.57;;
40781;SDS011;26493;51.938;7.626;2024-01-15T07:29:57;19.50;;;17.70;;
40781;SDS011;26493;51.938;7.626;2024-01-15T07:32:23;20.63;;;18.70;;
40781;SDS011;26493;51.938;7.626;2024-01-15T07:34:49;21.63;;;18.85;;
40781;SDS011;26493;51.938;7.626;2024-01-15T07:37:15;19.05;;;17.25;;
40781;SDS011;26493;51.938;7.626;2024-01-15T07:39:41;19.50;;;17.60;;
40781;SDS011;26493;51.938;7.626;2024-01-15T07:42:07;19.70;;;17.90;;
40781;SDS011;26493;51.938;7.626;2024-01-15T07:44:54;20.40;;;18.50;;
40781;SDS011;26493;51.938;7.626;2024-01-15T07:47:20;26.88;;;24.77;;
40781;SDS011;26493;51.938;7.626;2024-01-15T07:49:46;26.65;;;24.55;;
40781;SDS011;26493;51.938;7.626;2024-01-15T07:52:12;24.92;;;22.92;;
40781;SDS011;26493;51.938;7.626;2024-01-15T07:54:38;27.38;;;24.98;;
40781;SDS011;26493;51.938;7.626;2024-01-15T07:57:04;25.52;;;23.42;;
40781;SDS011;26493;51.938;7.626;2024-01-15T07:59:30;24.42;;;22.42;;
40781;SDS011;26493;51.938;7.626;2024-01-15T08:01:57;27.35;;;25.15;;
40781;SDS011;26493;51.938;7.626;2024-01-15T08:04:24;27.00;;;24.90;;
40781;SDS011;26493;51.938;7.626;2024-01-15T08:06:50;26.52;;;24.33;;
40781;SDS011;26493;51.938;7.626;2024-01-15T08:09:16;24.65;;;22.55;;
40781;SDS011;26493;51.938;7.626;2024-01-15T08:11:42;24.05;;;22.05;;
40781;SDS011;26493;51.938;7.626;2024-01-15T08:14:09;22.40;;;20.50;;
40781;SDS011;26493;51.938;7.626;2024-01-15T08:16:35;21.65;;;19.75;;
40781;SDS011;26493;51.938;7.626;2024-01-15T08:19:02;21.63;;;19.73;;
40781;SDS011;26493;51.938;7.626;2024-01-15T08:21:28;21.05;;;19.10;;
40781;SDS011;26493;51.938;7.626;2024-01-15T08:23:56;21.17;;;19.02;;
40781;SDS011;26493;51.938;7.626;2024-01-15T08:26:22;19.80;;;18.00;;
40781;SDS011;26493;51.938;7.626;2024-01-15T08:28:48;18.63;;;16.83;;
40781;SDS011;26493;51.938;7.626;2024-01-15T08:31:14;18.70;;;16.90;;
40781;SDS011;26493;51.938;7.626;2024-01-15T08:33:40;18.50;;;16.70;;
40781;SDS011;26493;51.938;7.626;2024-01-15T08:36:06;19.30;;;17.40;;
40781;SDS011;26493;51.938;7.626;2024-01-15T08:38:32;18.60;;;16.80;;
40781;SDS011;26493;51.938;7.626;2024-01-15T08:40:58;18.60;;;16.80;;
40781;SDS011;26493;51.938;7.626;2024-01-15T08:43:25;21.38;;;17.13;;
40781;SDS011;26493;51.938;7.626;2024-01-15T08:45:52;17.50;;;15.70;;
40781;SDS011;26493;51.938;7.626;2024-01-15T08:48:18;17.95;;;16.02;;
40781;SDS011;26493;51.938;7.626;2024-01-15T08:50:44;17.35;;;15.55;;
40781;SDS011;26493;51.938;7.626;2024-01-15T08:53:13;17.63;;;15.73;;
40781;SDS011;26493;51.938;7.626;2024-01-15T08:55:39;16.98;;;15.23;;
40781;SDS011;26493;51.938;7.626;2024-01-15T08:58:05;21.48;;;15.73;;
40781;SDS011;26493;51.938;7.626;2024-01-15T09:00:31;17.10;;;15.30;;
40781;SDS011;26493;51.938;7.626;2024-01-15T09:02:57;17.00;;;15.20;;
40781;SDS011;26493;51.938;7.626;2024-01-15T09:05:23;17.45;;;15.65;;
40781;SDS011;26493;51.938;7.626;2024-01-15T09:07:49;16.02;;;14.27;;
40781;SDS011;26493;51.938;7.626;2024-01-15T09:10:17;18.50;;;15.35;;
40781;SDS011;26493;51.938;7.626;2024-01-15T09:12:43;18.25;;;16.13;;
40781;SDS011;26493;51.938;7.626;2024-01-15T09:15:09;16.40;;;14.70;;
40781;SDS011;26493;51.938;7.626;2024-01-15T09:17:35;17.80;;;15.13;;
40781;SDS011;26493;51.938;7.626;2024-01-15T09:20:01;26.58;;;15.25;;
40781;SDS011;26493;51.938;7.626;2024-01-15T09:22:29;17.20;;;15.25;;
40781;SDS011;26493;51.938;7.626;2024-01-15T09:24:55;20.20;;;16.08;;
40781;SDS011;26493;51.938;7.626;2024-01-15T09:27:21;16.10;;;14.40;;
40781;SDS011;26493;51.938;7.626;2024-01-15T09:29:47;15.80;;;14.10;;
40781;SDS011;26493;51.938;7.626;2024-01-15T09:32:13;15.75;;;14.02;;
40781;SDS011;26493;51.938;7.626;2024-01-15T09:34:40;17.63;;;14.35;;
40781;SDS011;26493;51.938;7.626;2024-01-15T09:37:06;16.60;;;14.70;;
40781;SDS011;26493;51.938;7.626;2024-01-15T09:39:32;17.63;;;15.73;;
40781;SDS011;26493;51.938;7.626;2024-01-15T09:41:58;17.08;;;14.88;;
40781;SDS011;26493;51.938;7.626;2024-01-15T09:44:25;15.38;;;13.65;;
40781;SDS011;26493;51.938;7.626;2024-01-15T09:46:51;15.60;;;13.90;;
40781;SDS011;26493;51.938;7.626;2024-01-15T09:49:18;17.30;;;14.93;;
40781;SDS011;26493;51.938;7.626;2024-01-15T09:51:44;15.35;;;13.65;;
40781;SDS011;26493;51.938;7.626;2024-01-15T09:54:10;15.15;;;13.15;;
40781;SDS011;26493;51.938;7.626;2024-01-15T09:56:38;15.40;;;13.60;;
40781;SDS011;26493;51.938;7.626;2024-01-15T09:59:04;15.10;;;13.27;;
40781;SDS011;26493;51.938;7.626;2024-01-15T10:01:31;15.73;;;13.48;;
40781;SDS011;26493;51.938;7.626;2024-01-15T10:03:58;16.50;;;14.32;;
40781;SDS011;26493;51.938;7.626;2024-01-15T10:06:24;16.00;;;12.98;;
40781;SDS011;26493;51.938;7.626;2024-01-15T10:08:52;15.43;;;12.80;;
40781;SDS011;26493;51.938;7.626;2024-01-15T10:11:19;14.98;;;12.73;;
40781;SDS011;26493;51.938;7.626;2024-01-15T10:13:46;17.88;;;13.82;;
40781;SDS011;26493;51.938;7.626;2024-01-15T10:16:17;16.15;;;13.10;;
40781;SDS011;26493;51.938;7.626;2024-01-15T10:18:43;15.00;;;12.10;;
40781;SDS011;26493;51.938;7.626;2024-01-15T10:21:09;15.00;;;12.30;;
40781;SDS011;26493;51.938;7.626;2024-01-15T10:23:35;17.83;;;13.57;;
40781;SDS011;26493;51.938;7.626;2024-01-15T10:26:01;16.17;;;13.00;;
40781;SDS011;26493;51.938;7.626;2024-01-15T10:28:28;32.80;;;13.93;;
40781;SDS011;26493;51.938;7.626;2024-01-15T10:30:55;14.70;;;11.40;;
40781;SDS011;26493;51.938;7.626;2024-01-15T10:33:22;16.05;;;12.57;;
40781;SDS011;26493;51.938;7.626;2024-01-15T10:35:50;16.30;;;12.18;;
40781;SDS011;26493;51.938;7.626;2024-01-15T10:38:19;15.00;;;12.40;;
40781;SDS011;26493;51.938;7.626;2024-01-15T10:40:47;16.35;;;12.45;;
40781;SDS011;26493;51.938;7.626;2024-01-15T10:43:13;16.38;;;12.68;;
40781;SDS011;26493;51.938;7.626;2024-01-15T10:45:39;15.50;;;10.93;;
40781;SDS011;26493;51.938;7.626;2024-01-15T10:48:05;15.82;;;12.25;;
40781;SDS011;26493;51.938;7.626;2024-01-15T10:50:31;15.15;;;11.35;;
40781;SDS011;26493;51.938;7.626;2024-01-15T10:52:57;14.88;;;10.70;;
40781;SDS011;26493;51.938;7.626;2024-01-15T10:55:23;14.65;;;9.00;;
40781;SDS011;26493;51.938;7.626;2024-01-15T10:57:49;15.98;;;10.30;;
40781;SDS011;26493;51.938;7.626;2024-01-15T11:00:16;12.30;;;7.20;;
40781;SDS011;26493;51.938;7.626;2024-01-15T11:02:42;17.52;;;7.75;;
40781;SDS011;26493;51.938;7.626;2024-01-15T11:05:09;10.60;;;6.10;;
40781;SDS011;26493;51.938;7.626;2024-01-15T11:07:35;10.50;;;6.13;;
40781;SDS011;26493;51.938;7.626;2024-01-15T11:10:05;11.45;;;6.78;;
40781;SDS011;26493;51.938;7.626;2024-01-15T11:12:35;11.77;;;6.97;;
40781;SDS011;26493;51.938;7.626;2024-01-15T11:15:01;11.52;;;7.30;;
40781;SDS011;26493;51.938;7.626;2024-01-15T11:17:30;9.88;;;5.70;;
40781;SDS011;26493;51.938;7.626;2024-01-15T11:20:15;11.40;;;6.88;;
40781;SDS011;26493;51.938;7.626;2024-01-15T11:22:47;10.10;;;6.00;;
40781;SDS011;26493;51.938;7.626;2024-01-15T11:25:14;10.40;;;6.20;;
40781;SDS011;26493;51.938;7.626;2024-01-15T11:27:44;11.32;;;6.57;;
40781;SDS011;26493;51.938;7.626;2024-01-15T11:30:12;11.32;;;6.10;;
40781;SDS011;26493;51.938;7.626;2024-01-15T11:32:38;11.88;;;6.38;;
40781;SDS011;26493;51.938;7.626;2024-01-15T11:35:07;9.88;;;5.80;;
40781;SDS011;26493;51.938;7.626;2024-01-15T11:40:24;10.82;;;6.55;;
40781;SDS011;26493;51.938;7.626;2024-01-15T11:43:02;9.45;;;5.40;;
40781;SDS011;26493;51.938;7.626;2024-01-15T11:45:28;12.48;;;7.22;;
40781;SDS011;26493;51.938;7.626;2024-01-15T11:50:27;10.20;;;6.15;;
40781;SDS011;26493;51.938;7.626;2024-01-15T11:53:01;8.70;;;5.20;;
40781;SDS011;26493;51.938;7.626;2024-01-15T11:55:34;11.32;;;6.05;;
40781;SDS011;26493;51.938;7.626;2024-01-15T11:58:01;11.05;;;6.18;;
40781;SDS011;26493;51.938;7.626;2024-01-15T12:00:28;9.45;;;5.60;;
40781;SDS011;26493;51.938;7.626;2024-01-15T12:02:54;10.95;;;6.40;;
40781;SDS011;26493;51.938;7.626;2024-01-15T12:05:21;11.77;;;6.22;;
40781;SDS011;26493;51.938;7.626;2024-01-15T12:07:48;9.30;;;5.40;;
40781;SDS011;26493;51.938;7.626;2024-01-15T12:10:18;11.68;;;6.07;;
40781;SDS011;26493;51.938;7.626;2024-01-15T12:15:11;8.85;;;5.30;;
40781;SDS011;26493;51.938;7.626;2024-01-15T12:17:37;10.85;;;6.40;;
40781;SDS011;26493;51.938;7.626;2024-01-15T12:20:06;11.32;;;6.35;;
40781;SDS011;26493;51.938;7.626;2024-01-15T12:22:32;10.20;;;5.90;;
40781;SDS011;26493;51.938;7.626;2024-01-15T12:24:58;10.10;;;6.13;;
40781;SDS011;26493;51.938;7.626;2024-01-15T12:27:24;9.60;;;5.60;;
40781;SDS011;26493;51.938;7.626;2024-01-15T12:29:52;9.77;;;5.70;;
40781;SDS011;26493;51.938;7.626;2024-01-15T12:32:18;9.73;;;5.75;;
40781;SDS011;26493;51.938;7.626;2024-01-15T12:34:46;9.45;;;5.60;;
40781;SDS011;26493;51.938;7.626;2024-01-15T12:37:12;9.80;;;5.75;;
40781;SDS011;26493;51.938;7.626;2024-01-15T12:39:38;10.23;;;5.80;;
40781;SDS011;26493;51.938;7.626;2024-01-15T12:42:04;10.40;;;5.72;;
40781;SDS011;26493;51.938;7.626;2024-01-15T12:44:30;10.15;;;5.97;;
40781;SDS011;26493;51.938;7.626;2024-01-15T12:46:56;24.08;;;6.90;;
40781;SDS011;26493;51.938;7.626;2024-01-15T12:49:23;10.95;;;6.40;;
40781;SDS011;26493;51.938;7.626;2024-01-15T12:51:53;10.85;;;6.45;;
40781;SDS011;26493;51.938;7.626;2024-01-15T12:54:19;10.30;;;5.90;;
40781;SDS011;26493;51.938;7.626;2024-01-15T12:56:45;11.27;;;6.40;;
40781;SDS011;26493;51.938;7.626;2024-01-15T12:59:11;10.40;;;6.20;;
40781;SDS011;26493;51.938;7.626;2024-01-15T13:01:41;9.57;;;5.60;;
40781;SDS011;26493;51.938;7.626;2024-01-15T13:04:08;10.13;;;6.00;;
40781;SDS011;26493;51.938;7.626;2024-01-15T13:06:34;9.68;;;5.68;;
40781;SDS011;26493;51.938;7.626;2024-01-15T13:09:00;10.18;;;5.80;;
40781;SDS011;26493;51.938;7.626;2024-01-15T13:11:27;9.68;;;5.70;;
40781;SDS011;26493;51.938;7.626;2024-01-15T13:13:53;9.77;;;5.70;;
40781;SDS011;26493;51.938;7.626;2024-01-15T13:16:19;10.80;;;6.13;;
40781;SDS011;26493;51.938;7.626;2024-01-15T13:18:45;9.20;;;5.72;;
40781;SDS011;26493;51.938;7.626;2024-01-15T13:21:11;15.50;;;7.40;;
40781;SDS011;26493;51.938;7.626;2024-01-15T13:23:38;11.60;;;6.13;;
40781;SDS011;26493;51.938;7.626;2024-01-15T13:26:04;11.85;;;6.55;;
40781;SDS011;26493;51.938;7.626;2024-01-15T13:28:30;12.73;;;6.10;;
40781;SDS011;26493;51.938;7.626;2024-01-15T13:30:56;10.05;;;5.90;;
40781;SDS011;26493;51.938;7.626;2024-01-15T13:33:22;12.98;;;6.65;;
40781;SDS011;26493;51.938;7.626;2024-01-15T13:35:48;10.65;;;6.20;;
40781;SDS011;26493;51.938;7.626;2024-01-15T13:38:17;10.65;;;6.20;;
40781;SDS011;26493;51.938;7.626;2024-01-15T13:40:43;27.25;;;6.43;;
40781;SDS011;26493;51.938;7.626;2024-01-15T13:43:10;11.10;;;6.22;;
40781;SDS011;26493;51.938;7.626;2024-01-15T13:45:36;9.57;;;5.68;;
40781;SDS011;26493;51.938;7.626;2024-01-15T13:48:03;10.27;;;6.20;;
40781;SDS011;26493;51.938;7.626;2024-01-15T13:50:30;10.52;;;6.18;;
40781;SDS011;26493;51.938;7.626;2024-01-15T13:52:57;10.00;;;5.90;;
40781;SDS011;26493;51.938;7.626;2024-01-15T13:55:23;10.68;;;6.20;;
40781;SDS011;26493;51.938;7.626;2024-01-15T13:57:49;10.32;;;6.05;;
40781;SDS011;26493;51.938;7.626;2024-01-15T14:00:15;11.00;;;6.40;;
40781;SDS011;26493;51.938;7.626;2024-01-15T14:02:44;13.27;;;7.07;;
40781;SDS011;26493;51.938;7.626;2024-01-15T14:05:10;10.73;;;6.25;;
40781;SDS011;26493;51.938;7.626;2024-01-15T14:07:37;9.93;;;5.88;;
40781;SDS011;26493;51.938;7.626;2024-01-15T14:10:04;10.00;;;5.90;;
40781;SDS011;26493;51.938;7.626;2024-01-15T14:12:30;12.25;;;5.63;;
40781;SDS011;26493;51.938;7.626;2024-01-15T14:14:56;9.20;;;5.40;;
40781;SDS011;26493;51.938;7.626;2024-01-15T14:17:22;9.23;;;5.45;;
40781;SDS011;26493;51.938;7.626;2024-01-15T14:19:48;9.90;;;5.72;;
40781;SDS011;26493;51.938;7.626;2024-01-15T14:22:14;9.48;;;5.60;;
40781;SDS011;26493;51.938;7.626;2024-01-15T14:24:40;11.95;;;6.78;;
40781;SDS011;26493;51.938;7.626;2024-01-15T14:27:06;11.93;;;6.90;;
40781;SDS011;26493;51.938;7.626;2024-01-15T14:29:32;11.50;;;6.93;;
40781;SDS011;26493;51.938;7.626;2024-01-15T14:31:59;25.92;;;8.38;;
40781;SDS011;26493;51.938;7.626;2024-01-15T14:34:25;13.15;;;7.95;;
40781;SDS011;26493;51.938;7.626;2024-01-15T14:36:51;13.43;;;8.55;;